Apison, Tennessee
Current Conditions -  °F | °C
As of 6:53 PM on Sunday 23 Nov 2014 (Local Time) from KCHA Reporting Station
Overcast Overcast  
Wind Chill: 57°   Ceiling: 1500
Heat Index: 57°   Visibility: 7mi
Dew Point: 54°   Wind: 10mph
Humidity: 89%   Direction: 180°S
Pressure: 29.59"   Gusts: NA
Location:  35.02°N, 85.02°W
Report Text: KCHA 232353Z 18009KT 7SM FEW003 SCT008 OVC015 14/12 A2959 RMK AO2 SLP015 60089 T01390122 10144 20100 55017
Loading
Personal Weather Stations






























Interactive Weather Map New forecast layout! Learn more

10-Day Weather Forecast

Advertisements
Track Severe Weather on mobile